createdAt,value
2022-08-09T00:00:04.966Z,100795.50
2022-08-09T00:06:16.143Z,100807.06
2022-08-09T00:10:35.693Z,100804.25
2022-08-09T00:15:59.317Z,100811.00
2022-08-09T00:20:59.527Z,100786.59
2022-08-09T00:26:01.147Z,100799.72
2022-08-09T00:31:09.150Z,100787.03
2022-08-09T00:36:30.660Z,100789.16
2022-08-09T00:44:11.608Z,100801.22
2022-08-09T00:47:01.695Z,100801.56
2022-08-09T00:52:17.318Z,100800.25
2022-08-09T00:57:24.677Z,100795.50
2022-08-09T01:02:40.370Z,100804.44
2022-08-09T01:08:03.359Z,100812.63
2022-08-09T01:13:11.789Z,100801.66
2022-08-09T01:18:18.305Z,100815.63
2022-08-09T01:24:02.270Z,100818.53
2022-08-09T01:29:07.008Z,100809.41
2022-08-09T01:34:12.823Z,100817.59
2022-08-09T01:39:23.126Z,100830.66
2022-08-09T01:44:26.014Z,100834.59
2022-08-09T01:49:39.222Z,100839.16
2022-08-09T01:54:55.489Z,100842.31
2022-08-09T02:00:19.177Z,100847.50
2022-08-09T02:05:37.654Z,100854.56
2022-08-09T02:10:50.966Z,100851.22
2022-08-09T02:15:56.310Z,100856.25
2022-08-09T02:21:05.871Z,100853.38
2022-08-09T02:26:24.882Z,100854.75
2022-08-09T02:31:36.274Z,100856.19
2022-08-09T02:36:42.723Z,100857.19
2022-08-09T02:41:52.966Z,100853.09
2022-08-09T02:46:57.383Z,100848.47
2022-08-09T02:52:00.670Z,100850.97
2022-08-09T02:57:13.888Z,100851.91
2022-08-09T03:02:26.236Z,100857.06
2022-08-09T03:07:34.351Z,100857.22
2022-08-09T03:12:39.032Z,100857.47
2022-08-09T03:17:40.918Z,100851.34
2022-08-09T03:22:44.905Z,100852.69
2022-08-09T03:27:51.800Z,100845.16
2022-08-09T03:32:55.592Z,100859.63
2022-08-09T03:37:58.752Z,100857.81
2022-08-09T03:43:00.460Z,100856.03
2022-08-09T03:48:03.592Z,100849.47
2022-08-09T03:53:07.249Z,100852.56
2022-08-09T03:58:16.928Z,100844.66
2022-08-09T04:03:35.284Z,100861.91
2022-08-09T04:08:46.568Z,100877.94
2022-08-09T04:14:54.273Z,100892.31
2022-08-09T04:19:11.090Z,100919.88
2022-08-09T04:24:31.926Z,100911.88
2022-08-09T04:29:34.858Z,100916.66
2022-08-09T04:34:36.555Z,100928.13
2022-08-09T04:39:40.617Z,100941.91
2022-08-09T04:44:49.435Z,100947.41
2022-08-09T04:49:55.094Z,100965.13
2022-08-09T04:54:59.613Z,100978.00
2022-08-09T05:00:01.592Z,100981.97
2022-08-09T05:05:10.096Z,100988.06
2022-08-09T05:10:13.040Z,100990.66
2022-08-09T05:15:24.609Z,100997.13
2022-08-09T05:20:36.114Z,101012.03
2022-08-09T05:25:38.349Z,101012.78
2022-08-09T05:30:47.899Z,101025.88
2022-08-09T05:35:50.893Z,101051.84
2022-08-09T05:40:52.904Z,101052.09
2022-08-09T05:45:56.790Z,101080.56
2022-08-09T05:51:30.318Z,101095.97
2022-08-09T05:56:21.059Z,101102.66
2022-08-09T06:01:33.595Z,101125.56
2022-08-09T06:06:35.930Z,101115.84
2022-08-09T06:11:41.215Z,101129.81
2022-08-09T06:16:59.118Z,101152.78
2022-08-09T06:22:07.029Z,101164.44
2022-08-09T06:27:17.115Z,101191.44
2022-08-09T06:32:53.110Z,101194.50
2022-08-09T06:37:52.871Z,101203.19
2022-08-09T06:43:03.155Z,101216.72
2022-08-09T06:48:04.771Z,101222.38
2022-08-09T06:53:06.663Z,101230.25
2022-08-09T06:58:08.207Z,101243.34
2022-08-09T07:03:29.796Z,101273.16
2022-08-09T07:08:34.305Z,101292.13
2022-08-09T07:13:44.898Z,101301.53
2022-08-09T07:18:57.604Z,101330.22
2022-08-09T07:23:59.196Z,101345.53
2022-08-09T07:29:08.503Z,101343.22
2022-08-09T07:34:19.384Z,101359.53
2022-08-09T07:39:40.349Z,101390.00
2022-08-09T07:44:51.563Z,101384.13
2022-08-09T07:50:07.717Z,101401.63
2022-08-09T07:55:11.769Z,101382.53
2022-08-09T08:00:13.766Z,101382.66
2022-08-09T08:05:22.646Z,101384.78
2022-08-09T08:10:27.291Z,101407.28
2022-08-09T08:15:30.024Z,101395.41
2022-08-09T08:20:37.331Z,101387.72
2022-08-09T08:25:43.851Z,101371.59
2022-08-09T08:30:47.492Z,101389.59
2022-08-09T08:35:58.742Z,101405.38
2022-08-09T08:41:06.276Z,101405.38
2022-08-09T08:46:32.151Z,101408.66
2022-08-09T08:51:54.464Z,101430.91
2022-08-09T08:56:55.426Z,101414.75
2022-08-09T09:01:59.879Z,101420.66
2022-08-09T09:07:09.898Z,101429.41
2022-08-09T09:12:16.709Z,101384.56
2022-08-09T09:17:19.738Z,101439.56
2022-08-09T09:22:23.872Z,101459.63
2022-08-09T09:28:03.719Z,101474.59
2022-08-09T09:33:16.751Z,101482.69
2022-08-09T09:38:27.630Z,101447.88
2022-08-09T09:43:41.540Z,101426.75
2022-08-09T09:49:06.390Z,101466.03
2022-08-09T09:54:20.419Z,101484.25
2022-08-09T09:59:35.962Z,101513.59
2022-08-09T10:04:38.118Z,101502.44
2022-08-09T10:09:54.873Z,101539.06
2022-08-09T10:15:17.551Z,101667.28
2022-08-09T10:20:33.021Z,101827.19
2022-08-09T10:26:06.686Z,101884.03
2022-08-09T10:36:22.078Z,101886.53
2022-08-09T10:41:24.139Z,101907.19
2022-08-09T10:46:57.721Z,101938.94
2022-08-09T10:52:20.179Z,101887.56
2022-08-09T10:57:23.512Z,101781.66
2022-08-09T11:03:27.119Z,101746.13
2022-08-09T11:08:47.163Z,101745.19
2022-08-09T11:14:16.432Z,101709.03
2022-08-09T11:20:10.561Z,101707.97
2022-08-09T11:25:25.938Z,101737.59
2022-08-09T11:30:38.488Z,101770.09
2022-08-09T11:35:54.735Z,101690.47
2022-08-09T11:40:56.477Z,101669.69
2022-08-09T11:46:00.548Z,101662.88
2022-08-09T11:52:49.358Z,101665.31
2022-08-09T11:56:42.832Z,101629.44
2022-08-09T12:02:16.192Z,101614.25
2022-08-09T12:07:11.070Z,101619.06
2022-08-09T12:12:20.582Z,101650.31
2022-08-09T12:17:41.597Z,101686.34
2022-08-09T12:22:47.306Z,101630.88
2022-08-09T12:29:14.402Z,101603.63
2022-08-09T12:33:35.572Z,101674.09
2022-08-09T12:38:57.595Z,101657.59
2022-08-09T12:44:06.490Z,101659.81
2022-08-09T12:49:09.559Z,101641.53
2022-08-09T12:54:11.149Z,101677.06
2022-08-09T12:59:19.887Z,101698.22
2022-08-09T13:04:36.519Z,101694.75
2022-08-09T13:09:40.939Z,101697.22
2022-08-09T13:14:48.854Z,101720.19
2022-08-09T13:20:07.511Z,101746.09
2022-08-09T13:25:13.875Z,101720.50
2022-08-09T13:30:49.441Z,101707.63
2022-08-09T13:36:38.656Z,101733.00
2022-08-09T13:41:53.917Z,101692.75
2022-08-09T13:47:16.397Z,101699.47
2022-08-09T13:51:52.383Z,101717.94
2022-08-09T13:57:06.350Z,101728.25
2022-08-09T14:02:08.496Z,101747.06
2022-08-09T14:07:11.599Z,101764.00
2022-08-09T14:12:15.752Z,101807.19
2022-08-09T14:17:17.548Z,101801.69
2022-08-09T14:22:24.859Z,101840.47
2022-08-09T14:27:26.687Z,101828.91
2022-08-09T14:32:30.989Z,101785.56
2022-08-09T14:37:41.380Z,101843.13
2022-08-09T14:42:55.661Z,101856.25
2022-08-09T14:48:00.311Z,101912.59
2022-08-09T14:53:11.228Z,101929.56
2022-08-09T14:58:13.436Z,101894.63
2022-08-09T15:03:20.255Z,101862.56
2022-08-09T15:08:23.826Z,101875.09
2022-08-09T15:13:26.016Z,101912.84
2022-08-09T15:18:48.426Z,101917.28
2022-08-09T15:24:01.983Z,101902.50
2022-08-09T15:30:48.593Z,101957.81
2022-08-09T15:34:35.627Z,101978.53
2022-08-09T15:39:53.495Z,101950.41
2022-08-09T15:44:58.335Z,101943.81
2022-08-09T15:50:04.937Z,101933.91
2022-08-09T15:55:11.016Z,101888.41
2022-08-09T16:00:25.357Z,101869.13
2022-08-09T16:05:47.238Z,101887.69
2022-08-09T16:10:55.822Z,101922.06
2022-08-09T16:16:10.256Z,101912.22
2022-08-09T16:21:17.340Z,101883.47
2022-08-09T16:26:35.254Z,101833.47
2022-08-09T16:32:19.257Z,101790.59
2022-08-09T16:36:59.672Z,101742.03
2022-08-09T16:42:03.974Z,101720.63
2022-08-09T16:48:40.515Z,101715.44
2022-08-09T16:52:28.171Z,101698.28
2022-08-09T16:58:08.485Z,101656.06
2022-08-09T17:02:51.347Z,101618.19
2022-08-09T17:08:46.217Z,101640.22
2022-08-09T17:13:14.846Z,101626.91
2022-08-09T17:18:16.441Z,101642.97
2022-08-09T17:23:37.207Z,101651.56
2022-08-09T17:28:50.233Z,101626.97
2022-08-09T17:33:53.506Z,101594.22
2022-08-09T17:38:57.892Z,101581.59
2022-08-09T17:44:37.901Z,101562.66
2022-08-09T17:49:22.432Z,101515.59
2022-08-09T17:54:25.361Z,101483.84
2022-08-09T17:59:38.450Z,101441.34
2022-08-09T18:04:40.144Z,101424.03
2022-08-09T18:09:42.806Z,101418.22
2022-08-09T18:14:50.156Z,101408.00
2022-08-09T18:20:54.437Z,101388.00
2022-08-09T18:25:19.827Z,101361.53
2022-08-09T18:30:48.609Z,101332.69
2022-08-09T18:35:58.844Z,101304.69
2022-08-09T18:41:02.202Z,101274.84
2022-08-09T18:46:46.946Z,101217.78
2022-08-09T18:51:38.609Z,101209.81
2022-08-09T18:56:53.839Z,101183.38
2022-08-09T19:01:56.900Z,101158.56
2022-08-09T19:06:58.580Z,101128.94
2022-08-09T19:12:03.844Z,101088.91
2022-08-09T19:17:05.673Z,101052.19
2022-08-09T19:22:11.991Z,101003.03
2022-08-09T19:27:16.757Z,100979.06
2022-08-09T19:32:19.120Z,100958.78
2022-08-09T19:37:21.111Z,100953.06
2022-08-09T19:42:28.352Z,100928.78
2022-08-09T19:47:29.975Z,100898.16
2022-08-09T19:52:51.446Z,100843.47
2022-08-09T19:57:53.918Z,100837.38
2022-08-09T20:04:10.707Z,100812.97
2022-08-09T20:08:25.198Z,100801.28
2022-08-09T20:13:36.763Z,100796.00
2022-08-09T20:18:39.779Z,100783.44
2022-08-09T20:24:01.479Z,100754.41
2022-08-09T20:29:10.324Z,100733.81
2022-08-09T20:34:20.667Z,100704.25
2022-08-09T20:40:16.585Z,100685.25
2022-08-09T20:44:50.925Z,100680.47
2022-08-09T20:50:10.223Z,100669.53
2022-08-09T20:55:17.202Z,100664.38
2022-08-09T21:00:31.215Z,100654.16
2022-08-09T21:05:52.969Z,100644.53
2022-08-09T21:10:55.202Z,100642.22
2022-08-09T21:15:57.566Z,100632.59
2022-08-09T21:21:02.291Z,100631.31
2022-08-09T21:26:19.536Z,100622.25
2022-08-09T21:31:21.155Z,100610.94
2022-08-09T21:36:27.992Z,100594.38
2022-08-09T21:41:59.870Z,100603.31
2022-08-09T21:46:55.193Z,100623.34
2022-08-09T21:52:04.882Z,100635.00
2022-08-09T21:57:07.275Z,100641.66
2022-08-09T22:02:36.471Z,100656.13
2022-08-09T22:07:51.640Z,100646.09
2022-08-09T22:12:54.116Z,100650.50
2022-08-09T22:17:56.408Z,100654.66
2022-08-09T22:23:00.912Z,100666.00
2022-08-09T22:28:06.575Z,100677.03
2022-08-09T22:33:09.404Z,100693.63
2022-08-09T22:38:11.426Z,100709.41
2022-08-09T22:43:26.295Z,100711.56
2022-08-09T22:48:38.384Z,100727.34
2022-08-09T22:53:58.727Z,100732.63
2022-08-09T22:59:06.082Z,100744.53
2022-08-09T23:04:25.723Z,100745.97
2022-08-09T23:09:27.648Z,100762.84
2022-08-09T23:14:37.325Z,100772.25
2022-08-09T23:20:06.065Z,100784.22
2022-08-09T23:25:10.832Z,100803.88
2022-08-09T23:30:12.586Z,100810.16
2022-08-09T23:35:14.670Z,100819.25
2022-08-09T23:46:17.524Z,100837.00
2022-08-09T23:51:19.076Z,100845.28
2022-08-09T23:56:51.947Z,100848.06
